createdAt,value
2018-05-27T00:01:17.788Z,17.64
2018-05-27T00:01:56.758Z,17.69
2018-05-27T00:02:56.812Z,17.73
2018-05-27T00:03:56.788Z,17.64
2018-05-27T00:04:56.770Z,17.66
2018-05-27T00:05:56.753Z,17.76
2018-05-27T00:07:18.876Z,17.76
2018-05-27T00:07:56.742Z,17.87
2018-05-27T00:08:56.746Z,17.97
2018-05-27T00:09:56.743Z,17.85
2018-05-27T00:10:56.745Z,17.85
2018-05-27T00:11:56.777Z,17.82
2018-05-27T00:13:17.753Z,17.73
2018-05-27T00:13:56.759Z,17.76
2018-05-27T00:14:56.757Z,17.67
2018-05-27T00:15:56.749Z,17.67
2018-05-27T00:16:56.732Z,17.57
2018-05-27T00:17:56.786Z,17.47
2018-05-27T00:19:17.732Z,17.43
2018-05-27T00:19:56.714Z,17.41
2018-05-27T00:20:56.749Z,17.28
2018-05-27T00:21:56.741Z,17.28
2018-05-27T00:22:56.712Z,17.28
2018-05-27T00:23:56.708Z,17.26
2018-05-27T00:25:17.712Z,17.18
2018-05-27T00:25:56.698Z,17.47
2018-05-27T00:26:56.701Z,17.47
2018-05-27T00:27:56.693Z,17.50
2018-05-27T00:28:56.701Z,17.50
2018-05-27T00:29:56.684Z,17.63
2018-05-27T00:31:17.752Z,17.64
2018-05-27T00:31:56.700Z,17.66
2018-05-27T00:32:56.690Z,17.64
2018-05-27T00:33:56.687Z,17.69
2018-05-27T00:34:56.687Z,17.67
2018-05-27T00:35:56.684Z,17.76
2018-05-27T00:37:17.765Z,17.76
2018-05-27T00:37:56.688Z,17.79
2018-05-27T00:38:56.708Z,17.95
2018-05-27T00:39:56.668Z,17.94
2018-05-27T00:40:56.704Z,17.97
2018-05-27T00:41:56.705Z,17.94
2018-05-27T00:43:17.667Z,17.88
2018-05-27T00:43:56.695Z,18.02
2018-05-27T00:44:56.654Z,18.00
2018-05-27T00:45:56.662Z,18.06
2018-05-27T00:46:56.689Z,18.03
2018-05-27T00:47:56.647Z,18.04
2018-05-27T00:49:17.700Z,18.03
2018-05-27T00:49:56.702Z,17.97
2018-05-27T00:50:56.636Z,17.89
2018-05-27T00:51:56.699Z,17.91
2018-05-27T00:52:56.653Z,17.91
2018-05-27T00:53:56.629Z,17.87
2018-05-27T00:55:17.637Z,17.78
2018-05-27T00:55:56.620Z,17.94
2018-05-27T00:56:56.628Z,17.89
2018-05-27T00:57:56.635Z,17.94
2018-05-27T00:58:56.620Z,17.99
2018-05-27T00:59:56.619Z,17.95
2018-05-27T01:01:17.623Z,18.02
2018-05-27T01:01:56.608Z,18.04
2018-05-27T01:02:56.610Z,18.06
2018-05-27T01:03:56.610Z,17.91
2018-05-27T01:04:56.598Z,18.00
2018-05-27T01:05:56.608Z,17.97
2018-05-27T01:07:17.636Z,17.97
2018-05-27T01:07:56.591Z,17.95
2018-05-27T01:08:56.633Z,17.89
2018-05-27T01:09:56.594Z,17.89
2018-05-27T01:10:56.608Z,17.91
2018-05-27T01:11:56.606Z,17.91
2018-05-27T01:13:17.617Z,17.92
2018-05-27T01:13:56.637Z,17.95
2018-05-27T01:14:56.674Z,17.91
2018-05-27T01:15:56.580Z,17.91
2018-05-27T01:16:56.595Z,17.91
2018-05-27T01:17:56.563Z,17.94
2018-05-27T01:19:17.601Z,17.95
2018-05-27T01:19:56.568Z,17.87
2018-05-27T01:20:56.556Z,17.94
2018-05-27T01:21:56.576Z,17.94
2018-05-27T01:22:56.557Z,17.87
2018-05-27T01:23:56.665Z,17.92
2018-05-27T01:25:17.623Z,17.87
2018-05-27T01:25:56.549Z,17.89
2018-05-27T01:26:56.566Z,17.79
2018-05-27T01:27:56.561Z,17.74
2018-05-27T01:28:56.565Z,17.76
2018-05-27T01:29:56.545Z,17.84
2018-05-27T02:03:46.138Z,17.67
2018-05-27T02:04:46.102Z,17.74
2018-05-27T02:06:39.179Z,17.66
2018-05-27T02:07:39.156Z,17.62
2018-05-27T02:08:39.051Z,17.63
2018-05-27T02:09:39.144Z,17.62
2018-05-27T02:10:39.150Z,17.62
2018-05-27T02:11:39.130Z,17.51
2018-05-27T02:12:39.157Z,17.53
2018-05-27T02:13:39.127Z,17.53
2018-05-27T02:14:39.125Z,17.48
2018-05-27T02:15:39.117Z,17.51
2018-05-27T02:16:39.105Z,17.43
2018-05-27T02:17:39.099Z,17.51
2018-05-27T02:18:39.113Z,17.40
2018-05-27T02:19:39.110Z,17.47
2018-05-27T02:20:39.099Z,17.44
2018-05-27T02:21:39.097Z,17.41
2018-05-27T02:22:39.090Z,17.32
2018-05-27T02:23:39.095Z,17.41
2018-05-27T02:24:39.092Z,17.36
2018-05-27T02:25:39.082Z,17.35
2018-05-27T02:26:38.979Z,17.41
2018-05-27T02:27:39.074Z,17.44
2018-05-27T02:28:39.076Z,17.35
2018-05-27T02:29:39.067Z,17.43
2018-05-27T02:30:39.074Z,17.40
2018-05-27T02:31:39.074Z,17.26
2018-05-27T02:32:39.068Z,17.26
2018-05-27T02:33:39.078Z,17.29
2018-05-27T02:34:39.062Z,17.25
2018-05-27T02:35:39.060Z,17.26
2018-05-27T02:36:39.074Z,17.23
2018-05-27T02:37:39.061Z,17.22
2018-05-27T02:38:39.062Z,17.22
2018-05-27T02:39:39.053Z,17.14
2018-05-27T02:40:39.049Z,17.17
2018-05-27T02:41:39.050Z,17.14
2018-05-27T02:42:39.046Z,17.11
2018-05-27T02:43:39.039Z,17.08
2018-05-27T02:44:38.942Z,17.13
2018-05-27T02:45:39.035Z,17.06
2018-05-27T02:46:39.028Z,17.08
2018-05-27T02:47:39.025Z,17.04
2018-05-27T02:48:39.028Z,16.95
2018-05-27T02:49:39.025Z,16.95
2018-05-27T02:50:39.025Z,16.93
2018-05-27T02:51:39.037Z,16.93
2018-05-27T02:52:39.014Z,16.90
2018-05-27T02:53:39.011Z,16.83
2018-05-27T02:54:39.016Z,16.92
2018-05-27T02:55:39.008Z,16.93
2018-05-27T02:56:39.009Z,16.98
2018-05-27T02:57:38.898Z,16.88
2018-05-27T02:58:39.007Z,16.86
2018-05-27T02:59:39.002Z,16.86
2018-05-27T03:00:38.997Z,16.86
2018-05-27T03:01:38.995Z,16.86
2018-05-27T03:02:38.996Z,16.88
2018-05-27T03:03:39.046Z,16.89
2018-05-27T03:04:38.979Z,16.93
2018-05-27T03:05:38.983Z,16.98
2018-05-27T03:06:38.977Z,17.00
2018-05-27T03:07:38.970Z,16.99
2018-05-27T03:08:38.970Z,17.10
2018-05-27T03:09:38.979Z,17.08
2018-05-27T03:10:38.969Z,17.07
2018-05-27T03:11:38.970Z,17.08
2018-05-27T03:12:38.976Z,17.11
2018-05-27T03:13:38.967Z,17.11
2018-05-27T03:14:38.966Z,17.07
2018-05-27T03:15:38.962Z,17.08
2018-05-27T03:16:38.944Z,17.00
2018-05-27T03:17:38.949Z,17.06
2018-05-27T03:18:38.949Z,16.98
2018-05-27T03:19:38.958Z,16.98
2018-05-27T03:20:38.941Z,16.98
2018-05-27T03:21:38.944Z,17.04
2018-05-27T03:22:38.940Z,16.98
2018-05-27T03:23:38.830Z,16.96
2018-05-27T03:24:38.931Z,16.88
2018-05-27T03:25:38.944Z,16.95
2018-05-27T03:26:38.920Z,16.90
2018-05-27T03:27:38.927Z,16.88
2018-05-27T03:28:38.927Z,16.95
2018-05-27T03:29:38.918Z,16.96
2018-05-27T03:30:38.922Z,16.92
2018-05-27T03:31:38.919Z,16.89
2018-05-27T03:32:38.909Z,16.86
2018-05-27T03:33:38.914Z,16.95
2018-05-27T03:34:38.802Z,17.03
2018-05-27T03:35:38.897Z,16.98
2018-05-27T03:36:38.903Z,17.04
2018-05-27T03:37:38.900Z,16.98
2018-05-27T03:38:38.892Z,16.92
2018-05-27T03:39:38.890Z,16.96
2018-05-27T03:40:38.885Z,17.03
2018-05-27T03:41:38.889Z,17.07
2018-05-27T03:42:38.882Z,17.07
2018-05-27T03:43:38.882Z,17.10
2018-05-27T03:44:38.882Z,17.15
2018-05-27T03:45:38.880Z,17.17
2018-05-27T03:46:38.876Z,17.14
2018-05-27T03:47:38.878Z,17.26
2018-05-27T03:48:38.911Z,17.28
2018-05-27T03:49:38.878Z,17.28
2018-05-27T03:50:38.859Z,17.23
2018-05-27T03:51:38.858Z,17.17
2018-05-27T03:52:38.892Z,17.15
2018-05-27T03:53:38.856Z,17.08
2018-05-27T03:54:38.857Z,17.06
2018-05-27T03:55:38.854Z,17.06
2018-05-27T03:56:38.840Z,17.06
2018-05-27T03:57:38.854Z,17.15
2018-05-27T03:58:38.841Z,17.20
2018-05-27T03:59:38.736Z,17.23
2018-05-27T04:00:38.859Z,17.35
2018-05-27T04:01:38.837Z,17.51
2018-05-27T04:02:38.839Z,17.54
2018-05-27T04:03:38.827Z,17.63
2018-05-27T04:04:38.828Z,17.69
2018-05-27T04:05:38.830Z,17.73
2018-05-27T04:06:38.833Z,17.81
2018-05-27T04:07:38.823Z,17.87
2018-05-27T04:08:38.815Z,17.85
2018-05-27T04:09:38.826Z,17.87
2018-05-27T04:10:38.819Z,18.04
2018-05-27T04:11:38.809Z,18.03
2018-05-27T04:12:38.815Z,18.15
2018-05-27T04:13:38.812Z,18.09
2018-05-27T04:14:38.812Z,18.09
2018-05-27T04:15:38.814Z,18.18
2018-05-27T04:16:38.807Z,18.17
2018-05-27T04:17:38.805Z,18.19
2018-05-27T04:18:38.806Z,18.15
2018-05-27T04:19:38.701Z,17.99
2018-05-27T04:20:38.706Z,18.00
2018-05-27T04:21:38.800Z,18.04
2018-05-27T04:22:38.803Z,17.95
2018-05-27T04:23:38.803Z,17.97
2018-05-27T04:24:38.807Z,18.07
2018-05-27T04:25:38.795Z,17.99
2018-05-27T04:26:38.798Z,17.97
2018-05-27T04:27:38.807Z,17.92
2018-05-27T04:28:38.815Z,17.94
2018-05-27T04:29:38.785Z,18.03
2018-05-27T04:30:38.782Z,18.07
2018-05-27T04:31:38.776Z,18.12
2018-05-27T04:32:38.782Z,18.19
2018-05-27T04:33:38.797Z,18.19
2018-05-27T04:34:38.682Z,18.07
2018-05-27T04:35:38.781Z,18.17
2018-05-27T04:36:38.777Z,18.25
2018-05-27T04:37:38.769Z,18.27
2018-05-27T04:38:38.782Z,18.22
2018-05-27T04:39:38.775Z,18.24
2018-05-27T04:40:38.767Z,18.36
2018-05-27T04:41:38.767Z,18.36
2018-05-27T04:42:38.771Z,18.40
2018-05-27T04:43:38.767Z,18.42
2018-05-27T04:44:38.792Z,18.43
2018-05-27T04:45:38.771Z,18.42
2018-05-27T04:46:38.760Z,18.40
2018-05-27T04:47:38.781Z,18.44
2018-05-27T04:48:38.760Z,18.44
2018-05-27T04:49:38.758Z,18.49
2018-05-27T04:50:38.754Z,18.49
2018-05-27T04:51:38.759Z,18.52
2018-05-27T04:52:38.748Z,18.44
2018-05-27T04:53:38.755Z,18.50
2018-05-27T04:54:38.748Z,18.67
2018-05-27T04:55:38.756Z,18.58
2018-05-27T04:56:38.741Z,18.76
2018-05-27T04:57:38.751Z,18.72
2018-05-27T04:58:38.746Z,18.80
2018-05-27T04:59:38.739Z,18.86
2018-05-27T05:00:38.732Z,18.86
2018-05-27T05:01:38.731Z,18.82
2018-05-27T05:02:38.754Z,18.87
2018-05-27T05:03:38.741Z,18.82
2018-05-27T05:04:38.738Z,18.94
2018-05-27T05:05:38.631Z,18.80
2018-05-27T05:06:38.725Z,18.86
2018-05-27T05:07:38.737Z,18.87
2018-05-27T05:08:38.732Z,18.83
2018-05-27T05:09:38.734Z,18.99
2018-05-27T05:10:38.730Z,18.98
2018-05-27T05:11:38.732Z,19.02
2018-05-27T05:12:38.727Z,19.05
2018-05-27T05:13:38.627Z,19.13
2018-05-27T05:14:38.727Z,19.14
2018-05-27T05:15:38.713Z,19.24
2018-05-27T05:16:38.744Z,19.28
2018-05-27T05:17:38.722Z,19.21
2018-05-27T05:18:38.741Z,19.08
2018-05-27T05:19:38.615Z,19.11
2018-05-27T05:20:38.711Z,19.14
2018-05-27T05:21:38.712Z,19.10
2018-05-27T05:22:38.714Z,19.02
2018-05-27T05:23:38.743Z,19.02
2018-05-27T05:24:38.713Z,18.98
2018-05-27T05:25:38.710Z,18.95
2018-05-27T05:26:38.713Z,19.11
2018-05-27T05:27:38.729Z,19.08
2018-05-27T05:28:38.707Z,19.02
2018-05-27T05:29:38.709Z,19.10
2018-05-27T05:30:38.721Z,19.18
2018-05-27T05:31:38.710Z,19.24
2018-05-27T05:32:38.704Z,19.24
2018-05-27T05:33:38.702Z,19.15
2018-05-27T05:34:38.697Z,19.29
2018-05-27T05:35:38.711Z,19.39
2018-05-27T05:36:38.708Z,19.53
2018-05-27T05:37:38.727Z,19.48
2018-05-27T05:38:38.624Z,19.46
2018-05-27T05:39:38.705Z,19.47
2018-05-27T05:40:38.702Z,19.69
2018-05-27T05:41:38.694Z,19.76
2018-05-27T05:42:38.702Z,19.86
2018-05-27T05:43:38.727Z,19.91
2018-05-27T05:44:38.704Z,19.88
2018-05-27T05:45:38.720Z,19.86
2018-05-27T05:46:38.709Z,19.78
2018-05-27T05:47:38.720Z,19.72
2018-05-27T05:48:38.700Z,19.66
2018-05-27T05:49:38.590Z,19.54
2018-05-27T05:50:38.702Z,19.46
2018-05-27T05:51:38.700Z,19.47
2018-05-27T05:52:38.702Z,19.38
2018-05-27T05:53:38.701Z,19.40
2018-05-27T05:54:38.695Z,19.35
2018-05-27T05:55:38.701Z,19.39
2018-05-27T05:56:38.695Z,19.18
2018-05-27T05:57:38.697Z,19.33
2018-05-27T05:58:38.702Z,19.35
2018-05-27T05:59:38.697Z,19.36
2018-05-27T06:00:38.701Z,19.47
2018-05-27T06:01:38.704Z,19.40
2018-05-27T06:02:38.715Z,19.48
2018-05-27T06:03:38.702Z,19.54
2018-05-27T06:04:38.698Z,19.42
2018-05-27T06:05:38.692Z,19.55
2018-05-27T06:06:38.696Z,19.65
2018-05-27T06:07:38.698Z,19.68
2018-05-27T06:08:38.709Z,19.80
2018-05-27T06:09:38.714Z,19.75
2018-05-27T06:10:38.698Z,19.76
2018-05-27T06:11:38.699Z,19.72
2018-05-27T06:12:38.724Z,19.83
2018-05-27T06:13:38.746Z,19.75
2018-05-27T06:14:38.700Z,19.84
2018-05-27T06:15:38.704Z,19.86
2018-05-27T06:16:38.699Z,19.97
2018-05-27T06:17:38.701Z,20.12
2018-05-27T06:18:38.700Z,20.03
2018-05-27T06:19:38.707Z,20.09
2018-05-27T06:20:38.696Z,20.12
2018-05-27T06:21:38.701Z,20.28
2018-05-27T06:22:38.706Z,20.42
2018-05-27T06:23:38.703Z,20.33
2018-05-27T06:24:38.713Z,20.28
2018-05-27T06:25:38.710Z,20.31
2018-05-27T06:26:38.716Z,20.21
2018-05-27T06:27:38.696Z,20.18
2018-05-27T06:28:38.705Z,20.39
2018-05-27T06:29:38.703Z,20.39
2018-05-27T06:30:38.706Z,20.42
2018-05-27T06:31:38.708Z,20.42
2018-05-27T06:32:38.711Z,20.34
2018-05-27T06:33:38.715Z,20.24
2018-05-27T06:34:38.708Z,20.18
2018-05-27T06:35:38.708Z,20.15
2018-05-27T06:36:38.712Z,20.15
2018-05-27T06:37:38.718Z,20.27
2018-05-27T06:38:38.766Z,20.35
2018-05-27T06:39:38.718Z,20.46
2018-05-27T06:40:38.719Z,20.49
2018-05-27T06:41:38.741Z,20.49
2018-05-27T06:42:38.724Z,20.53
2018-05-27T06:43:38.730Z,20.90
2018-05-27T06:44:38.739Z,21.21
2018-05-27T06:45:38.625Z,21.41
2018-05-27T06:46:38.731Z,21.50
2018-05-27T06:47:38.735Z,21.71
2018-05-27T06:48:38.734Z,21.98
2018-05-27T06:49:38.739Z,22.25
2018-05-27T06:50:38.742Z,22.09
2018-05-27T06:51:38.747Z,22.06
2018-05-27T06:52:38.746Z,22.09
2018-05-27T06:53:38.751Z,21.94
2018-05-27T06:54:38.747Z,21.59
2018-05-27T06:55:38.753Z,21.88
2018-05-27T06:56:38.762Z,22.06
2018-05-27T06:57:38.763Z,22.25
2018-05-27T06:58:38.779Z,22.38
2018-05-27T06:59:38.765Z,22.27
2018-05-27T07:00:38.769Z,21.99
2018-05-27T07:01:38.778Z,22.17
2018-05-27T07:02:38.775Z,22.23
2018-05-27T07:03:38.777Z,22.53
2018-05-27T07:04:38.793Z,22.65
2018-05-27T07:05:38.807Z,22.43
2018-05-27T07:06:38.788Z,22.78
2018-05-27T07:07:38.794Z,22.84
2018-05-27T07:08:38.801Z,22.90
2018-05-27T07:09:38.693Z,23.09
2018-05-27T07:10:38.749Z,23.01
2018-05-27T07:11:38.835Z,23.09
2018-05-27T07:12:38.813Z,23.02
2018-05-27T07:13:38.817Z,22.71
2018-05-27T07:14:38.777Z,22.94
2018-05-27T07:15:38.826Z,22.97
2018-05-27T07:16:38.821Z,22.92
2018-05-27T07:17:38.836Z,23.11
2018-05-27T07:18:38.836Z,22.99
2018-05-27T07:19:38.838Z,23.02
2018-05-27T07:20:38.851Z,23.14
2018-05-27T07:21:38.889Z,23.05
2018-05-27T07:22:38.852Z,22.90
2018-05-27T07:23:38.864Z,22.62
2018-05-27T07:24:38.873Z,22.69
2018-05-27T07:25:38.867Z,22.53
2018-05-27T07:26:38.913Z,22.68
2018-05-27T07:27:38.878Z,22.69
2018-05-27T07:28:38.889Z,22.89
2018-05-27T07:29:38.887Z,22.82
2018-05-27T07:30:38.891Z,22.99
2018-05-27T07:31:38.898Z,22.84
2018-05-27T07:32:38.910Z,22.92
2018-05-27T07:33:38.903Z,23.05
2018-05-27T07:34:38.981Z,23.07
2018-05-27T07:35:38.914Z,22.97
2018-05-27T07:36:38.938Z,23.20
2018-05-27T07:37:38.927Z,23.40
2018-05-27T07:38:38.927Z,23.50
2018-05-27T07:39:38.927Z,23.70
2018-05-27T07:40:38.943Z,23.57
2018-05-27T07:41:38.943Z,23.45
2018-05-27T07:42:38.950Z,23.67
2018-05-27T07:43:38.953Z,23.90
2018-05-27T07:44:38.961Z,23.90
2018-05-27T07:45:38.965Z,23.94
2018-05-27T07:46:38.982Z,23.98
2018-05-27T07:47:38.978Z,23.47
2018-05-27T07:48:38.980Z,23.61
2018-05-27T07:49:38.983Z,23.90
2018-05-27T07:50:38.991Z,23.83
2018-05-27T07:51:38.903Z,23.75
2018-05-27T07:52:39.012Z,24.04
2018-05-27T07:53:39.003Z,24.20
2018-05-27T07:54:39.005Z,24.39
2018-05-27T07:55:39.016Z,24.42
2018-05-27T07:56:39.018Z,24.29
2018-05-27T07:57:39.021Z,24.24
2018-05-27T07:58:39.027Z,24.04
2018-05-27T07:59:39.033Z,24.05
2018-05-27T08:00:39.039Z,24.07
2018-05-27T08:01:39.046Z,24.29
2018-05-27T08:02:39.056Z,24.27
2018-05-27T08:03:39.089Z,23.92
2018-05-27T08:04:39.070Z,24.13
2018-05-27T08:05:39.069Z,24.26
2018-05-27T08:06:39.069Z,24.27
2018-05-27T08:07:39.083Z,24.00
2018-05-27T08:08:39.088Z,23.82
2018-05-27T08:09:39.093Z,23.70
2018-05-27T08:10:39.101Z,23.90
2018-05-27T08:11:39.102Z,24.12
2018-05-27T08:12:39.113Z,24.17
2018-05-27T08:13:39.121Z,24.34
2018-05-27T08:14:39.125Z,24.35
2018-05-27T08:15:39.128Z,24.42
2018-05-27T08:16:39.135Z,24.16
2018-05-27T08:17:39.144Z,24.39
2018-05-27T08:18:39.164Z,24.54
2018-05-27T08:19:39.220Z,24.41
2018-05-27T08:20:39.150Z,24.44
2018-05-27T08:21:39.062Z,24.92
2018-05-27T08:22:39.168Z,25.16
2018-05-27T08:23:39.187Z,25.98
2018-05-27T08:24:39.181Z,26.79
2018-05-27T08:25:39.203Z,27.53
2018-05-27T08:26:39.213Z,27.70
2018-05-27T08:27:39.217Z,27.70
2018-05-27T08:28:39.239Z,27.36
2018-05-27T08:29:39.254Z,27.48
2018-05-27T08:30:39.140Z,28.01
2018-05-27T08:31:39.251Z,28.28
2018-05-27T08:32:39.260Z,27.94
2018-05-27T08:33:39.274Z,27.73
2018-05-27T08:34:39.275Z,27.92
2018-05-27T08:35:39.340Z,27.35
2018-05-27T08:36:39.296Z,27.88
2018-05-27T08:37:39.316Z,27.99
2018-05-27T08:38:39.323Z,28.03
2018-05-27T08:39:39.329Z,28.31
2018-05-27T08:40:39.335Z,27.88
2018-05-27T08:41:39.344Z,27.80
2018-05-27T08:42:39.360Z,28.14
2018-05-27T08:43:39.377Z,27.88
2018-05-27T08:44:39.377Z,27.92
2018-05-27T08:45:39.388Z,27.89
2018-05-27T08:46:39.407Z,27.19
2018-05-27T08:47:39.421Z,27.16
2018-05-27T08:48:39.415Z,27.91
2018-05-27T08:49:39.423Z,28.16
2018-05-27T08:50:39.451Z,28.32
2018-05-27T08:51:39.444Z,28.44
2018-05-27T08:52:39.457Z,27.88
2018-05-27T08:53:39.465Z,27.91
2018-05-27T08:54:39.478Z,28.16
2018-05-27T08:55:39.483Z,28.66
2018-05-27T08:56:39.495Z,28.50
2018-05-27T08:57:39.517Z,28.31
2018-05-27T08:58:39.556Z,28.66
2018-05-27T08:59:39.534Z,29.45
2018-05-27T09:00:39.547Z,29.33
2018-05-27T09:01:39.553Z,29.79
2018-05-27T09:02:39.473Z,29.72
2018-05-27T09:03:39.614Z,30.30
2018-05-27T09:04:39.589Z,30.52
2018-05-27T09:05:39.607Z,30.14
2018-05-27T09:06:39.614Z,29.75
2018-05-27T09:07:39.631Z,28.95
2018-05-27T09:08:39.652Z,29.06
2018-05-27T09:09:39.654Z,29.20
2018-05-27T09:10:39.704Z,29.57
2018-05-27T09:11:39.679Z,29.78
2018-05-27T09:12:39.691Z,29.52
2018-05-27T09:13:39.720Z,29.43
2018-05-27T09:14:39.726Z,29.43
2018-05-27T09:15:39.729Z,29.28
2018-05-27T09:16:39.730Z,29.00
2018-05-27T09:17:39.751Z,29.43
2018-05-27T09:18:39.764Z,29.13
2018-05-27T09:19:39.771Z,28.72
2018-05-27T09:20:39.779Z,28.58
2018-05-27T09:21:39.797Z,28.44
2018-05-27T09:22:39.837Z,28.32
2018-05-27T09:23:39.824Z,28.21
2018-05-27T09:24:39.837Z,28.17
2018-05-27T09:25:39.847Z,28.63
2018-05-27T09:26:39.858Z,29.25
2018-05-27T09:27:39.766Z,29.79
2018-05-27T09:28:39.895Z,30.15
2018-05-27T09:29:39.911Z,30.83
2018-05-27T09:30:39.907Z,31.26
2018-05-27T09:31:39.921Z,30.94
2018-05-27T09:32:39.936Z,30.68
2018-05-27T09:33:39.949Z,31.13
2018-05-27T09:34:39.954Z,31.21
2018-05-27T09:35:39.975Z,31.64
2018-05-27T09:36:39.989Z,31.23
2018-05-27T09:37:40.007Z,31.21
2018-05-27T09:38:40.017Z,31.04
2018-05-27T09:39:40.031Z,30.83
2018-05-27T09:40:40.076Z,30.72
2018-05-27T09:41:40.054Z,30.45
2018-05-27T09:42:40.076Z,30.94
2018-05-27T09:43:40.089Z,31.24
2018-05-27T09:44:40.098Z,31.57
2018-05-27T09:45:40.119Z,31.31
2018-05-27T09:46:40.135Z,30.30
2018-05-27T09:47:40.140Z,30.68
2018-05-27T09:48:40.172Z,31.30
2018-05-27T09:49:40.170Z,31.46
2018-05-27T09:50:40.191Z,31.01
2018-05-27T09:51:40.198Z,31.73
2018-05-27T09:52:40.228Z,32.39
2018-05-27T09:53:40.264Z,32.85
2018-05-27T09:54:40.246Z,33.20
2018-05-27T09:55:40.281Z,33.58
2018-05-27T09:56:40.295Z,34.11
2018-05-27T09:57:40.304Z,34.38
2018-05-27T09:58:40.338Z,34.86
2018-05-27T09:59:40.327Z,34.94
2018-05-27T10:00:40.385Z,35.26
2018-05-27T10:01:40.372Z,35.51
2018-05-27T10:02:40.392Z,35.86
2018-05-27T10:03:40.312Z,35.54
2018-05-27T10:04:40.434Z,34.14
2018-05-27T10:05:40.435Z,33.89
2018-05-27T10:06:40.447Z,33.08
2018-05-27T10:07:40.478Z,32.67
2018-05-27T10:08:40.493Z,31.15
2018-05-27T10:09:40.515Z,30.74
2018-05-27T10:10:40.537Z,30.67
2018-05-27T10:11:40.566Z,31.62
2018-05-27T10:12:40.564Z,31.53
2018-05-27T10:13:40.601Z,31.65
2018-05-27T10:14:40.590Z,31.70
2018-05-27T10:15:40.636Z,32.05
2018-05-27T10:16:40.650Z,32.14
2018-05-27T10:17:40.653Z,31.92
2018-05-27T10:18:40.717Z,32.03
2018-05-27T10:19:40.693Z,32.13
2018-05-27T10:20:40.729Z,31.84
2018-05-27T10:21:40.726Z,30.80
2018-05-27T10:22:40.758Z,30.47
2018-05-27T10:23:40.760Z,31.35
2018-05-27T10:24:40.776Z,31.39
2018-05-27T10:25:40.792Z,31.46
2018-05-27T10:26:40.810Z,31.80
2018-05-27T10:27:40.828Z,31.72
2018-05-27T10:28:40.847Z,32.15
2018-05-27T10:29:40.861Z,31.84
2018-05-27T10:30:40.881Z,31.20
2018-05-27T10:31:40.894Z,31.21
2018-05-27T10:32:40.918Z,30.19
2018-05-27T10:33:40.951Z,30.11
2018-05-27T10:34:40.941Z,30.87
2018-05-27T10:35:40.969Z,31.06
2018-05-27T10:36:40.986Z,31.75
2018-05-27T10:37:41.003Z,32.10
2018-05-27T10:38:41.017Z,32.05
2018-05-27T10:39:41.037Z,32.02
2018-05-27T10:40:41.063Z,32.22
2018-05-27T10:41:41.065Z,32.14
2018-05-27T10:42:41.105Z,32.13
2018-05-27T10:43:41.120Z,31.70
2018-05-27T10:44:41.117Z,31.58
2018-05-27T10:45:41.141Z,32.40
2018-05-27T10:46:41.154Z,32.74
2018-05-27T10:47:41.175Z,33.11
2018-05-27T10:48:41.225Z,33.39
2018-05-27T10:49:41.232Z,33.33
2018-05-27T10:50:41.230Z,32.58
2018-05-27T10:51:41.249Z,32.07
2018-05-27T10:52:41.305Z,32.43
2018-05-27T10:53:41.293Z,32.24
2018-05-27T10:54:41.311Z,32.77
2018-05-27T10:55:41.349Z,33.11
2018-05-27T10:56:41.349Z,32.84
2018-05-27T10:57:41.356Z,32.81
2018-05-27T10:58:41.379Z,32.69
2018-05-27T10:59:41.393Z,32.64
2018-05-27T11:00:41.446Z,32.21
2018-05-27T11:01:41.462Z,31.68
2018-05-27T11:02:41.446Z,31.06
2018-05-27T11:03:41.468Z,31.17
2018-05-27T11:04:41.590Z,31.35
2018-05-27T11:05:41.530Z,31.49
2018-05-27T11:06:41.534Z,31.27
2018-05-27T11:07:41.544Z,30.75
2018-05-27T11:08:41.560Z,30.62
2018-05-27T11:09:41.575Z,30.62
2018-05-27T11:10:41.598Z,30.45
2018-05-27T11:11:41.632Z,29.87
2018-05-27T11:12:41.639Z,29.94
2018-05-27T11:13:41.655Z,30.53
2018-05-27T11:14:41.670Z,30.45
2018-05-27T11:15:41.705Z,30.30
2018-05-27T11:16:41.719Z,30.78
2018-05-27T11:17:41.726Z,30.75
2018-05-27T11:18:41.741Z,31.38
2018-05-27T11:19:41.762Z,31.01
2018-05-27T11:20:41.802Z,31.02
2018-05-27T11:21:41.799Z,31.04
2018-05-27T11:22:41.841Z,31.58
2018-05-27T11:23:41.832Z,31.43
2018-05-27T11:24:41.855Z,31.50
2018-05-27T11:25:41.874Z,31.70
2018-05-27T11:26:41.893Z,30.98
2018-05-27T11:27:41.906Z,31.21
2018-05-27T11:28:41.923Z,31.76
2018-05-27T11:29:41.943Z,31.85
2018-05-27T11:30:41.979Z,31.28
2018-05-27T11:31:41.975Z,31.72
2018-05-27T11:32:41.992Z,31.31
2018-05-27T11:33:42.003Z,31.76
2018-05-27T11:34:42.027Z,32.17
2018-05-27T11:35:42.046Z,32.06
2018-05-27T11:36:42.063Z,32.07
2018-05-27T11:37:42.092Z,31.31
2018-05-27T11:38:42.110Z,31.93
2018-05-27T11:39:42.122Z,32.77
2018-05-27T11:40:42.137Z,32.58
2018-05-27T11:41:42.154Z,32.62
2018-05-27T11:42:42.171Z,32.51
2018-05-27T11:43:42.192Z,32.64
2018-05-27T11:44:42.204Z,32.85
2018-05-27T11:45:42.227Z,32.20
2018-05-27T11:46:42.253Z,32.59
2018-05-27T11:47:42.264Z,32.59
2018-05-27T11:48:42.354Z,31.61
2018-05-27T11:49:42.302Z,31.99
2018-05-27T11:50:42.316Z,31.57
2018-05-27T11:51:42.342Z,31.53
2018-05-27T11:52:42.355Z,31.92
2018-05-27T11:53:42.387Z,32.35
2018-05-27T11:54:42.400Z,32.27
2018-05-27T11:55:42.414Z,31.30
2018-05-27T11:56:42.437Z,31.96
2018-05-27T11:57:42.448Z,31.70
2018-05-27T11:58:42.464Z,30.93
2018-05-27T11:59:42.486Z,31.58
2018-05-27T12:00:42.503Z,32.02
2018-05-27T12:01:42.569Z,31.72
2018-05-27T12:02:43.060Z,31.75
2018-05-27T12:03:42.651Z,32.11
2018-05-27T12:04:42.585Z,32.36
2018-05-27T12:05:42.602Z,30.65
2018-05-27T12:06:42.616Z,31.02
2018-05-27T12:07:42.641Z,31.98
2018-05-27T12:08:42.656Z,32.30
2018-05-27T12:09:42.913Z,32.81
2018-05-27T12:10:42.692Z,31.58
2018-05-27T12:11:42.731Z,30.99
2018-05-27T12:12:42.728Z,30.91
2018-05-27T12:13:42.757Z,31.26
2018-05-27T12:14:42.772Z,31.05
2018-05-27T12:15:42.789Z,30.99
2018-05-27T12:16:42.823Z,31.02
2018-05-27T12:17:42.828Z,31.67
2018-05-27T12:18:42.847Z,32.32
2018-05-27T12:19:42.864Z,31.93
2018-05-27T12:20:42.880Z,32.42
2018-05-27T12:21:42.898Z,32.36
2018-05-27T12:22:42.917Z,31.72
2018-05-27T12:23:42.934Z,30.99
2018-05-27T12:24:42.975Z,31.36
2018-05-27T12:25:42.986Z,30.54
2018-05-27T12:26:42.986Z,29.82
2018-05-27T12:27:43.005Z,29.13
2018-05-27T12:28:43.025Z,28.93
2018-05-27T12:29:43.092Z,29.19
2018-05-27T12:30:43.061Z,28.41
2018-05-27T12:31:43.081Z,28.10
2018-05-27T12:32:43.083Z,27.79
2018-05-27T12:33:43.122Z,27.36
2018-05-27T12:34:43.125Z,27.35
2018-05-27T12:35:43.147Z,27.67
2018-05-27T12:36:43.155Z,27.74
2018-05-27T12:37:43.167Z,28.03
2018-05-27T12:38:43.186Z,28.35
2018-05-27T12:39:43.196Z,28.41
2018-05-27T12:40:43.218Z,28.51
2018-05-27T12:41:43.223Z,28.07
2018-05-27T12:42:43.186Z,28.17
2018-05-27T12:43:43.261Z,28.28
2018-05-27T12:44:43.256Z,28.40
2018-05-27T12:45:43.192Z,28.03
2018-05-27T12:46:43.280Z,28.09
2018-05-27T12:47:43.289Z,28.22
2018-05-27T12:48:43.303Z,27.73
2018-05-27T12:49:43.314Z,27.79
2018-05-27T12:50:43.308Z,27.48
2018-05-27T12:51:43.326Z,27.59
2018-05-27T12:52:43.335Z,27.46
2018-05-27T12:53:43.349Z,27.61
2018-05-27T12:54:43.349Z,27.58
2018-05-27T12:55:43.353Z,27.61
2018-05-27T12:56:43.364Z,27.54
2018-05-27T12:57:43.372Z,27.67
2018-05-27T12:58:43.380Z,27.53
2018-05-27T12:59:43.385Z,27.57
2018-05-27T13:00:43.399Z,27.61
2018-05-27T13:01:43.400Z,27.88
2018-05-27T13:02:43.415Z,27.98
2018-05-27T13:03:43.421Z,27.89
2018-05-27T13:04:43.316Z,27.84
2018-05-27T13:05:43.434Z,27.64
2018-05-27T13:06:43.443Z,27.67
2018-05-27T13:07:43.443Z,27.84
2018-05-27T13:08:43.462Z,27.80
2018-05-27T13:09:43.466Z,27.91
2018-05-27T13:10:43.466Z,27.77
2018-05-27T13:11:43.480Z,27.73
2018-05-27T13:12:43.479Z,27.58
2018-05-27T13:13:43.484Z,27.50
2018-05-27T13:14:43.489Z,27.48
2018-05-27T13:15:43.500Z,27.76
2018-05-27T13:16:43.612Z,27.58
2018-05-27T13:17:43.523Z,27.33
2018-05-27T13:18:43.516Z,27.13
2018-05-27T13:19:43.529Z,27.36
2018-05-27T13:20:43.533Z,27.35
2018-05-27T13:21:43.538Z,27.42
2018-05-27T13:22:43.544Z,27.50
2018-05-27T13:23:43.586Z,27.50
2018-05-27T13:24:43.555Z,27.69
2018-05-27T13:25:43.563Z,27.80
2018-05-27T13:26:43.571Z,28.03